createdAt,value
2023-11-12T00:02:21.078Z,2.63
2023-11-12T00:04:49.859Z,3.10
2023-11-12T00:07:17.934Z,2.73
2023-11-12T00:09:46.984Z,2.73
2023-11-12T00:12:15.113Z,2.70
2023-11-12T00:14:46.712Z,3.10
2023-11-12T00:17:16.526Z,2.77
2023-11-12T00:19:46.093Z,3.13
2023-11-12T00:22:14.884Z,2.67
2023-11-12T00:24:42.872Z,2.67
2023-11-12T00:27:10.871Z,2.80
2023-11-12T00:29:38.904Z,2.53
2023-11-12T00:32:09.104Z,2.93
2023-11-12T00:34:37.589Z,2.70
2023-11-12T00:37:08.943Z,2.77
2023-11-12T00:39:38.528Z,2.90
2023-11-12T00:42:07.037Z,2.77
2023-11-12T00:44:36.679Z,2.57
2023-11-12T00:47:05.375Z,2.43
2023-11-12T00:49:33.455Z,2.50
2023-11-12T00:52:01.488Z,2.70
2023-11-12T00:54:31.395Z,3.00
2023-11-12T00:56:59.640Z,3.03
2023-11-12T00:59:28.801Z,2.87
2023-11-12T01:01:57.102Z,3.07
2023-11-12T01:04:25.403Z,2.80
2023-11-12T01:06:54.567Z,2.97
2023-11-12T01:09:22.572Z,3.03
2023-11-12T01:11:52.085Z,3.00
2023-11-12T01:14:20.245Z,2.90
2023-11-12T01:16:49.360Z,3.37
2023-11-12T01:19:18.211Z,3.23
2023-11-12T01:21:46.368Z,3.10
2023-11-12T01:24:14.621Z,3.43
2023-11-12T01:26:42.880Z,3.57
2023-11-12T01:29:12.526Z,3.60
2023-11-12T01:31:40.721Z,3.80
2023-11-12T01:34:09.338Z,3.50
2023-11-12T01:36:37.528Z,3.73
2023-11-12T01:39:08.490Z,4.00
2023-11-12T01:41:37.008Z,4.40
2023-11-12T01:44:05.375Z,5.17
2023-11-12T01:46:36.046Z,4.57
2023-11-12T01:49:05.275Z,4.53
2023-11-12T01:51:35.632Z,4.30
2023-11-12T01:54:04.379Z,4.97
2023-11-12T01:56:34.524Z,4.73
2023-11-12T01:59:05.829Z,4.70
2023-11-12T02:01:35.652Z,4.50
2023-11-12T02:04:05.954Z,4.23
2023-11-12T02:06:34.327Z,4.70
2023-11-12T02:09:02.952Z,4.90
2023-11-12T02:11:34.553Z,5.10
2023-11-12T02:14:03.555Z,4.73
2023-11-12T02:16:34.118Z,4.53
2023-11-12T02:19:02.255Z,4.73
2023-11-12T02:21:35.363Z,4.97
2023-11-12T02:24:08.246Z,4.97
2023-11-12T02:26:38.285Z,5.30
2023-11-12T02:29:08.118Z,5.03
2023-11-12T02:31:36.609Z,4.77
2023-11-12T02:34:06.150Z,5.23
2023-11-12T02:36:36.662Z,5.13
2023-11-12T02:39:08.836Z,5.10
2023-11-12T02:41:39.236Z,5.30
2023-11-12T02:44:09.042Z,5.60
2023-11-12T02:46:37.381Z,5.90
2023-11-12T02:49:24.600Z,6.00
2023-11-12T02:51:52.674Z,5.53
2023-11-12T02:54:22.156Z,6.17
2023-11-12T02:56:50.170Z,6.43
2023-11-12T02:59:19.289Z,6.40
2023-11-12T03:01:47.338Z,6.50
2023-11-12T03:04:15.768Z,6.13
2023-11-12T03:06:44.333Z,6.50
2023-11-12T03:09:12.491Z,6.47
2023-11-12T03:11:47.438Z,5.97
2023-11-12T03:14:17.429Z,6.00
2023-11-12T03:16:45.720Z,6.20
2023-11-12T03:19:36.043Z,6.33
2023-11-12T03:22:04.338Z,6.00
2023-11-12T03:24:32.482Z,5.73
2023-11-12T03:27:02.258Z,5.60
2023-11-12T03:29:30.308Z,6.37
2023-11-12T03:31:58.936Z,6.63
2023-11-12T03:34:27.569Z,6.60
2023-11-12T03:36:59.914Z,6.53
2023-11-12T03:39:29.645Z,5.97
2023-11-12T03:41:57.861Z,7.37
2023-11-12T03:44:27.388Z,7.07
2023-11-12T03:46:56.861Z,6.43
2023-11-12T03:49:26.065Z,7.20
2023-11-12T03:51:55.388Z,6.77
2023-11-12T03:54:23.875Z,7.17
2023-11-12T03:57:11.894Z,6.63
2023-11-12T03:59:41.819Z,7.03
2023-11-12T04:02:10.259Z,7.37
2023-11-12T04:04:38.711Z,6.57
2023-11-12T04:07:09.397Z,7.40
2023-11-12T04:09:38.489Z,7.60
2023-11-12T04:12:07.690Z,7.00
2023-11-12T04:14:35.763Z,7.00
2023-11-12T04:17:05.862Z,6.50
2023-11-12T04:19:35.160Z,6.80
2023-11-12T04:22:03.480Z,7.40
2023-11-12T04:24:32.144Z,6.43
2023-11-12T04:27:00.194Z,6.60
2023-11-12T04:29:28.243Z,7.20
2023-11-12T04:31:56.283Z,7.03
2023-11-12T04:34:28.125Z,7.43
2023-11-12T04:36:57.848Z,6.77
2023-11-12T04:39:25.983Z,6.93
2023-11-12T04:41:54.457Z,6.80
2023-11-12T04:44:24.850Z,6.87
2023-11-12T04:46:53.009Z,8.00
2023-11-12T04:49:22.280Z,7.50
2023-11-12T04:51:51.633Z,7.43
2023-11-12T04:54:20.647Z,7.07
2023-11-12T04:56:50.853Z,7.57
2023-11-12T04:59:18.926Z,7.57
2023-11-12T05:01:46.995Z,7.90
2023-11-12T05:04:15.060Z,7.80
2023-11-12T05:06:44.430Z,8.50
2023-11-12T05:09:13.965Z,8.07
2023-11-12T05:11:41.985Z,8.43
2023-11-12T05:14:11.217Z,8.40
2023-11-12T05:16:39.320Z,8.23
2023-11-12T05:19:08.008Z,8.10
2023-11-12T05:21:38.551Z,8.57
2023-11-12T05:24:07.728Z,8.73
2023-11-12T05:26:37.227Z,9.10
2023-11-12T05:29:05.411Z,9.50
2023-11-12T05:31:34.340Z,9.23
2023-11-12T05:34:04.002Z,9.33
2023-11-12T05:36:33.677Z,9.13
2023-11-12T05:39:01.740Z,8.67
2023-11-12T05:41:29.802Z,9.27
2023-11-12T05:44:01.670Z,9.63
2023-11-12T05:46:31.159Z,9.80
2023-11-12T05:49:02.472Z,10.07
2023-11-12T05:51:31.152Z,9.90
2023-11-12T05:53:59.364Z,10.17
2023-11-12T05:56:29.723Z,10.43
2023-11-12T05:59:01.794Z,9.50
2023-11-12T06:01:31.680Z,8.97
2023-11-12T06:04:01.819Z,9.20
2023-11-12T06:06:30.012Z,9.10
2023-11-12T06:08:58.893Z,9.13
2023-11-12T06:11:27.172Z,9.50
2023-11-12T06:13:55.111Z,9.60
2023-11-12T06:16:23.138Z,9.50
2023-11-12T06:18:52.432Z,8.97
2023-11-12T06:21:20.527Z,8.90
2023-11-12T06:23:48.566Z,8.53
2023-11-12T06:26:19.063Z,9.43
2023-11-12T06:28:47.214Z,9.10
2023-11-12T06:31:15.157Z,9.43
2023-11-12T06:33:44.303Z,9.10
2023-11-12T06:36:15.115Z,9.17
2023-11-12T06:38:43.357Z,9.20
2023-11-12T06:41:11.616Z,10.03
2023-11-12T06:43:39.629Z,8.83
2023-11-12T06:46:08.675Z,9.47
2023-11-12T06:48:36.877Z,9.37
2023-11-12T06:51:05.651Z,9.23
2023-11-12T06:53:35.022Z,9.43
2023-11-12T06:56:05.567Z,9.03
2023-11-12T06:58:34.961Z,9.03
2023-11-12T07:01:03.019Z,8.80
2023-11-12T07:03:31.128Z,8.43
2023-11-12T07:06:00.058Z,7.70
2023-11-12T07:08:28.666Z,8.37
2023-11-12T07:10:59.401Z,8.70
2023-11-12T07:13:27.322Z,8.97
2023-11-12T07:15:56.451Z,8.53
2023-11-12T07:18:25.737Z,8.60
2023-11-12T07:20:53.801Z,8.53
2023-11-12T07:24:41.479Z,7.87
2023-11-12T07:27:09.561Z,7.87
2023-11-12T07:29:37.510Z,8.70
2023-11-12T07:32:06.037Z,8.30
2023-11-12T07:34:34.205Z,8.17
2023-11-12T07:37:02.226Z,8.83
2023-11-12T07:39:30.841Z,8.13
2023-11-12T07:42:00.258Z,8.20
2023-11-12T07:44:28.249Z,8.07
2023-11-12T07:46:56.340Z,7.93
2023-11-12T07:49:24.834Z,8.43
2023-11-12T07:51:53.124Z,8.50
2023-11-12T07:54:21.251Z,8.70
2023-11-12T07:56:49.442Z,8.47
2023-11-12T07:59:19.326Z,8.87
2023-11-12T08:01:49.193Z,8.50
2023-11-12T08:04:18.594Z,8.87
2023-11-12T08:06:49.533Z,8.47
2023-11-12T08:09:17.987Z,8.50
2023-11-12T08:11:46.110Z,8.17
2023-11-12T08:14:15.181Z,8.97
2023-11-12T08:16:44.654Z,9.07
2023-11-12T08:19:12.799Z,8.17
2023-11-12T08:21:40.872Z,9.50
2023-11-12T08:24:09.406Z,9.33
2023-11-12T08:26:40.084Z,8.87
2023-11-12T08:29:09.169Z,9.43
2023-11-12T08:31:38.050Z,9.70
2023-11-12T08:34:07.884Z,10.77
2023-11-12T08:36:36.124Z,10.90
2023-11-12T08:39:05.919Z,11.03
2023-11-12T08:41:34.361Z,12.50
2023-11-12T08:44:02.433Z,11.47
2023-11-12T08:46:30.474Z,11.63
2023-11-12T08:48:58.552Z,11.17
2023-11-12T08:51:27.945Z,10.80
2023-11-12T08:53:56.139Z,11.20
2023-11-12T08:56:24.118Z,10.23
2023-11-12T08:58:52.309Z,10.50
2023-11-12T09:01:20.431Z,13.03
2023-11-12T09:03:48.507Z,11.70
2023-11-12T09:06:16.591Z,11.17
2023-11-12T09:08:46.347Z,11.37
2023-11-12T09:11:15.868Z,11.60
2023-11-12T09:13:44.512Z,11.27
2023-11-12T09:16:14.173Z,10.40
2023-11-12T09:18:42.481Z,11.40
2023-11-12T09:21:10.784Z,11.10
2023-11-12T09:23:39.809Z,11.13
2023-11-12T09:26:09.876Z,11.30
2023-11-12T09:28:39.329Z,10.97
2023-11-12T09:31:07.327Z,10.33
2023-11-12T09:33:35.394Z,11.27
2023-11-12T09:36:03.383Z,10.90
2023-11-12T09:38:31.389Z,11.23
2023-11-12T09:41:02.720Z,10.93
2023-11-12T09:43:32.786Z,10.57
2023-11-12T09:46:01.563Z,10.33
2023-11-12T09:48:33.872Z,10.40
2023-11-12T09:51:03.011Z,10.67
2023-11-12T09:53:34.926Z,10.83
2023-11-12T09:56:09.821Z,9.27
2023-11-12T09:58:42.102Z,9.43
2023-11-12T10:01:12.454Z,9.13
2023-11-12T10:03:41.318Z,8.90
2023-11-12T10:06:12.051Z,8.77
2023-11-12T10:08:40.338Z,8.73
2023-11-12T10:11:23.808Z,8.93
2023-11-12T10:13:53.856Z,9.20
2023-11-12T10:16:27.363Z,9.70
2023-11-12T10:18:55.754Z,9.03
2023-11-12T10:21:24.811Z,8.30
2023-11-12T10:24:06.039Z,7.83
2023-11-12T10:26:36.566Z,8.53
2023-11-12T10:29:07.448Z,7.03
2023-11-12T10:31:39.766Z,7.67
2023-11-12T10:34:08.916Z,9.40
2023-11-12T10:36:37.343Z,10.83
2023-11-12T10:39:06.574Z,13.07
2023-11-12T10:41:37.094Z,14.50
2023-11-12T10:44:08.900Z,16.57
2023-11-12T10:46:39.739Z,19.93
2023-11-12T10:49:10.213Z,17.93
2023-11-12T10:51:41.276Z,17.73
2023-11-12T10:54:11.149Z,18.47
2023-11-12T10:56:39.403Z,20.20
2023-11-12T10:59:09.630Z,18.20
2023-11-12T11:01:40.724Z,18.37
2023-11-12T11:04:11.121Z,17.83
2023-11-12T11:06:42.314Z,15.90
2023-11-12T11:09:11.409Z,16.60
2023-11-12T11:11:39.556Z,17.37
2023-11-12T11:14:25.794Z,18.03
2023-11-12T11:16:54.328Z,17.87
2023-11-12T11:19:56.793Z,17.97
2023-11-12T11:22:26.540Z,16.77
2023-11-12T11:24:56.241Z,18.77
2023-11-12T11:27:26.826Z,19.23
2023-11-12T11:30:13.442Z,18.73
2023-11-12T11:33:00.739Z,18.43
2023-11-12T11:35:30.435Z,19.60
2023-11-12T11:38:13.171Z,19.93
2023-11-12T11:40:43.612Z,18.27
2023-11-12T11:43:32.557Z,18.63
2023-11-12T11:46:15.892Z,18.47
2023-11-12T11:49:18.213Z,18.83
2023-11-12T11:51:47.205Z,19.83
2023-11-12T11:54:19.272Z,19.17
2023-11-12T11:56:47.388Z,20.10
2023-11-12T11:59:15.611Z,19.47
2023-11-12T12:01:47.876Z,20.20
2023-11-12T12:04:17.652Z,20.30
2023-11-12T12:06:47.553Z,19.43
2023-11-12T12:09:19.248Z,18.47
2023-11-12T12:11:48.426Z,18.60
2023-11-12T12:14:17.436Z,20.07
2023-11-12T12:16:49.896Z,20.43
2023-11-12T12:19:20.350Z,19.03
2023-11-12T12:21:50.275Z,18.97
2023-11-12T12:24:18.971Z,20.93
2023-11-12T12:26:47.570Z,19.97
2023-11-12T12:29:17.081Z,20.80
2023-11-12T12:31:46.925Z,19.27
2023-11-12T12:34:17.422Z,20.50
2023-11-12T12:37:11.095Z,21.03
2023-11-12T12:39:55.788Z,22.13
2023-11-12T12:42:28.812Z,21.37
2023-11-12T12:44:58.384Z,23.73
2023-11-12T12:47:32.244Z,23.17
2023-11-12T12:50:00.586Z,24.03
2023-11-12T12:52:28.853Z,23.50
2023-11-12T12:54:56.872Z,24.67
2023-11-12T12:57:25.713Z,23.60
2023-11-12T12:59:53.662Z,22.50
2023-11-12T13:02:23.374Z,24.10
2023-11-12T13:04:54.671Z,23.97
2023-11-12T13:07:22.890Z,23.67
2023-11-12T13:09:51.247Z,23.20
2023-11-12T13:12:19.551Z,22.57
2023-11-12T13:14:48.472Z,22.93
2023-11-12T13:17:17.245Z,21.10
2023-11-12T13:19:45.884Z,21.40
2023-11-12T13:22:15.479Z,20.10
2023-11-12T13:24:44.770Z,20.53
2023-11-12T13:27:13.640Z,17.40
2023-11-12T13:29:42.185Z,16.10
2023-11-12T13:32:10.529Z,16.60
2023-11-12T13:34:39.586Z,16.07
2023-11-12T13:37:09.003Z,17.17
2023-11-12T13:39:38.335Z,17.60
2023-11-12T13:42:08.065Z,17.77
2023-11-12T13:44:38.087Z,17.73
2023-11-12T13:47:06.542Z,17.60
2023-11-12T13:49:36.123Z,19.00
2023-11-12T13:52:06.582Z,19.20
2023-11-12T13:54:35.415Z,21.47
2023-11-12T13:57:04.939Z,20.37
2023-11-12T13:59:33.027Z,22.83
2023-11-12T14:02:01.089Z,22.90
2023-11-12T14:04:29.241Z,21.90
2023-11-12T14:06:57.294Z,22.10
2023-11-12T14:09:25.351Z,21.07
2023-11-12T14:11:53.388Z,22.90
2023-11-12T14:14:23.058Z,22.87
2023-11-12T14:16:52.583Z,24.60
2023-11-12T14:19:20.677Z,23.60
2023-11-12T14:21:49.666Z,23.00
2023-11-12T14:24:18.512Z,23.03
2023-11-12T14:26:47.310Z,24.23
2023-11-12T14:29:16.905Z,23.50
2023-11-12T14:31:47.283Z,24.37
2023-11-12T14:34:16.263Z,22.23
2023-11-12T14:36:44.422Z,22.43
2023-11-12T14:39:18.905Z,22.40
2023-11-12T14:41:47.278Z,21.43
2023-11-12T14:44:15.283Z,22.20
2023-11-12T14:46:44.913Z,23.10
2023-11-12T14:49:14.350Z,22.40
2023-11-12T14:51:46.712Z,22.00
2023-11-12T14:54:15.775Z,21.93
2023-11-12T14:56:43.896Z,21.50
2023-11-12T14:59:13.264Z,22.30
2023-11-12T15:01:46.675Z,20.90
2023-11-12T15:04:17.295Z,22.60
2023-11-12T15:06:45.433Z,21.57
2023-11-12T15:09:13.540Z,22.07
2023-11-12T15:11:42.081Z,20.63
2023-11-12T15:14:10.437Z,20.90
2023-11-12T15:16:38.606Z,20.63
2023-11-12T15:19:07.639Z,20.43
2023-11-12T15:21:43.304Z,20.83
2023-11-12T15:24:12.556Z,22.23
2023-11-12T15:26:42.693Z,22.10
2023-11-12T15:29:10.798Z,21.80
2023-11-12T15:31:39.072Z,20.07
2023-11-12T15:34:10.047Z,22.17
2023-11-12T15:36:41.224Z,22.53
2023-11-12T15:39:10.319Z,21.93
2023-11-12T15:41:38.813Z,21.90
2023-11-12T15:44:07.311Z,23.03
2023-11-12T15:46:35.368Z,23.27
2023-11-12T15:49:03.456Z,21.60
2023-11-12T15:51:31.909Z,26.75
2023-11-12T15:54:01.795Z,23.97
2023-11-12T15:56:29.776Z,22.07
2023-11-12T15:58:57.837Z,20.30
2023-11-12T16:01:25.934Z,20.97
2023-11-12T16:03:54.199Z,22.17
2023-11-12T16:06:22.331Z,22.20
2023-11-12T16:08:56.175Z,22.63
2023-11-12T16:11:29.269Z,23.70
2023-11-12T16:13:58.915Z,24.40
2023-11-12T16:16:26.989Z,23.20
2023-11-12T16:18:55.373Z,24.93
2023-11-12T16:21:23.529Z,25.70
2023-11-12T16:23:52.544Z,24.97
2023-11-12T16:26:20.823Z,27.10
2023-11-12T16:28:50.209Z,27.47
2023-11-12T16:31:18.786Z,27.70
2023-11-12T16:33:47.136Z,28.63
2023-11-12T16:36:15.160Z,28.67
2023-11-12T16:38:43.156Z,29.40
2023-11-12T16:41:11.197Z,30.77
2023-11-12T16:43:39.273Z,31.37
2023-11-12T16:46:09.955Z,29.67
2023-11-12T16:48:37.993Z,29.93
2023-11-12T16:51:06.671Z,29.70
2023-11-12T16:53:34.718Z,27.97
2023-11-12T16:56:03.468Z,26.90
2023-11-12T16:58:31.547Z,28.03
2023-11-12T17:00:59.680Z,27.90
2023-11-12T17:03:29.225Z,27.77
2023-11-12T17:05:57.345Z,28.33
2023-11-12T17:08:25.401Z,26.57
2023-11-12T17:10:53.590Z,27.47
2023-11-12T17:13:22.543Z,26.83
2023-11-12T17:15:50.830Z,27.37
2023-11-12T17:18:19.680Z,27.63
2023-11-12T17:20:49.664Z,26.57
2023-11-12T17:23:18.830Z,29.50
2023-11-12T17:25:46.996Z,25.90
2023-11-12T17:28:15.306Z,26.40
2023-11-12T17:30:43.316Z,26.90
2023-11-12T17:33:11.366Z,27.23
2023-11-12T17:35:40.002Z,26.23
2023-11-12T17:38:09.319Z,26.30
2023-11-12T17:40:37.601Z,27.47
2023-11-12T17:43:06.021Z,25.73
2023-11-12T17:45:34.132Z,24.87
2023-11-12T17:48:02.382Z,26.70
2023-11-12T17:50:30.401Z,28.13
2023-11-12T17:52:58.348Z,29.07
2023-11-12T17:55:27.917Z,27.17
2023-11-12T17:57:56.477Z,27.40
2023-11-12T18:00:24.797Z,26.73
2023-11-12T18:02:52.833Z,28.87
2023-11-12T18:05:21.017Z,27.10
2023-11-12T18:07:49.034Z,28.80
2023-11-12T18:10:17.218Z,28.33
2023-11-12T18:12:46.624Z,28.33
2023-11-12T18:15:15.432Z,27.63
2023-11-12T18:17:43.649Z,27.93
2023-11-12T18:20:12.840Z,27.37
2023-11-12T18:22:40.892Z,29.03
2023-11-12T18:25:10.308Z,28.20
2023-11-12T18:27:40.289Z,30.10
2023-11-12T18:30:10.862Z,29.57
2023-11-12T18:32:39.130Z,28.37
2023-11-12T18:35:09.266Z,28.90
2023-11-12T18:37:37.335Z,27.90
2023-11-12T18:40:10.125Z,28.27
2023-11-12T18:42:39.825Z,26.47
2023-11-12T18:45:10.024Z,27.57
2023-11-12T18:47:37.996Z,27.67
2023-11-12T18:50:07.211Z,27.23
2023-11-12T18:52:35.210Z,26.20
2023-11-12T18:55:03.367Z,25.20
2023-11-12T18:57:31.418Z,26.23
2023-11-12T19:00:01.698Z,24.70
2023-11-12T19:02:31.236Z,24.73
2023-11-12T19:05:00.753Z,24.80
2023-11-12T19:07:28.908Z,24.10
2023-11-12T19:09:57.009Z,24.20
2023-11-12T19:12:26.603Z,23.07
2023-11-12T19:14:55.200Z,24.70
2023-11-12T19:17:23.723Z,24.43
2023-11-12T19:19:53.436Z,24.10
2023-11-12T19:22:21.563Z,25.23
2023-11-12T19:24:49.731Z,24.63
2023-11-12T19:27:18.310Z,24.27
2023-11-12T19:29:46.478Z,24.97
2023-11-12T19:32:14.658Z,24.43
2023-11-12T19:34:43.183Z,25.87
2023-11-12T19:37:13.906Z,25.67
2023-11-12T19:39:42.156Z,25.17
2023-11-12T19:42:12.177Z,25.53
2023-11-12T19:44:40.530Z,24.53
2023-11-12T19:47:09.423Z,25.47
2023-11-12T19:49:38.785Z,26.17
2023-11-12T19:52:07.650Z,24.77
2023-11-12T19:54:41.993Z,24.67
2023-11-12T19:57:10.513Z,23.73
2023-11-12T19:59:38.739Z,23.80
2023-11-12T20:02:07.586Z,24.13
2023-11-12T20:04:37.172Z,23.73
2023-11-12T20:07:06.784Z,25.63
2023-11-12T20:09:34.986Z,24.77
2023-11-12T20:12:04.528Z,23.87
2023-11-12T20:14:32.565Z,24.63
2023-11-12T20:17:00.799Z,25.70
2023-11-12T20:19:31.732Z,24.43
2023-11-12T20:22:00.044Z,24.77
2023-11-12T20:24:28.167Z,22.83
2023-11-12T20:26:56.412Z,24.37
2023-11-12T20:29:25.823Z,26.07
2023-11-12T20:31:55.481Z,23.73
2023-11-12T20:34:24.414Z,25.30
2023-11-12T20:36:53.199Z,24.43
2023-11-12T20:39:21.685Z,23.50
2023-11-12T20:41:51.821Z,23.17
2023-11-12T20:44:20.934Z,22.67
2023-11-12T20:46:50.629Z,24.67
2023-11-12T20:49:19.378Z,23.80
2023-11-12T20:51:49.163Z,23.27
2023-11-12T20:54:17.678Z,23.70
2023-11-12T20:56:47.316Z,25.00
2023-11-12T20:59:16.824Z,23.07
2023-11-12T21:01:45.133Z,24.20
2023-11-12T21:04:16.465Z,23.13
2023-11-12T21:06:46.378Z,23.77
2023-11-12T21:09:14.935Z,21.93
2023-11-12T21:11:48.141Z,22.97
2023-11-12T21:14:17.200Z,22.00
2023-11-12T21:16:45.648Z,23.13
2023-11-12T21:19:15.284Z,23.07
2023-11-12T21:21:47.640Z,23.10
2023-11-12T21:24:17.503Z,23.33
2023-11-12T21:26:47.264Z,23.60
2023-11-12T21:29:15.840Z,22.07
2023-11-12T21:31:46.272Z,22.97
2023-11-12T21:34:16.450Z,21.70
2023-11-12T21:36:44.656Z,24.10
2023-11-12T21:39:18.019Z,23.47
2023-11-12T21:41:46.091Z,22.13
2023-11-12T21:44:14.415Z,21.70
2023-11-12T21:46:44.755Z,22.40
2023-11-12T21:49:14.241Z,21.67
2023-11-12T21:51:44.300Z,21.33
2023-11-12T21:54:12.473Z,19.97
2023-11-12T21:56:40.592Z,20.40
2023-11-12T21:59:09.453Z,21.17
2023-11-12T22:01:38.142Z,20.23
2023-11-12T22:04:07.206Z,20.70
2023-11-12T22:06:37.181Z,20.50
2023-11-12T22:09:14.704Z,19.73
2023-11-12T22:11:46.694Z,19.80
2023-11-12T22:14:15.641Z,19.83
2023-11-12T22:16:44.138Z,19.63
2023-11-12T22:19:13.874Z,21.17
2023-11-12T22:21:44.466Z,21.70
2023-11-12T22:24:15.569Z,21.37
2023-11-12T22:26:49.042Z,21.70
2023-11-12T22:29:18.961Z,22.13
2023-11-12T22:31:47.825Z,21.47
2023-11-12T22:34:17.140Z,21.80
2023-11-12T22:36:46.074Z,21.67
2023-11-12T22:39:15.609Z,22.70
2023-11-12T22:41:44.081Z,23.27
2023-11-12T22:44:13.193Z,21.70
2023-11-12T22:46:45.044Z,22.63
2023-11-12T22:49:13.635Z,21.57
2023-11-12T22:51:41.754Z,21.40
2023-11-12T22:54:14.708Z,20.50
2023-11-12T22:56:44.340Z,20.80
2023-11-12T22:59:12.873Z,21.00
2023-11-12T23:01:41.390Z,22.07
2023-11-12T23:04:11.019Z,21.37
2023-11-12T23:06:39.347Z,20.50
2023-11-12T23:09:08.687Z,20.70
2023-11-12T23:11:36.789Z,21.93
2023-11-12T23:14:06.347Z,21.63
2023-11-12T23:16:34.560Z,21.63
2023-11-12T23:19:05.053Z,22.07
2023-11-12T23:21:33.962Z,22.30
2023-11-12T23:24:02.318Z,20.70
2023-11-12T23:26:30.442Z,21.93
2023-11-12T23:28:58.720Z,20.40
2023-11-12T23:31:28.201Z,21.47
2023-11-12T23:33:56.643Z,18.87
2023-11-12T23:36:28.846Z,20.73
2023-11-12T23:38:57.337Z,20.27
2023-11-12T23:41:25.335Z,20.50
2023-11-12T23:43:53.549Z,19.43
2023-11-12T23:46:21.661Z,20.23
2023-11-12T23:48:51.154Z,20.60
2023-11-12T23:51:20.446Z,18.80
2023-11-12T23:53:49.718Z,19.33
2023-11-12T23:56:17.996Z,19.17
2023-11-12T23:58:48.446Z,18.87
